createdAt,value
2018-06-20T00:00:46.913Z,19.61
2018-06-20T00:03:16.006Z,19.60
2018-06-20T00:05:45.073Z,19.64
2018-06-20T00:08:14.048Z,19.65
2018-06-20T00:10:43.043Z,19.66
2018-06-20T00:13:12.095Z,19.63
2018-06-20T00:15:41.184Z,19.63
2018-06-20T00:18:10.232Z,19.62
2018-06-20T00:20:39.237Z,19.63
2018-06-20T00:23:08.224Z,19.65
2018-06-20T00:25:37.299Z,19.64
2018-06-20T00:28:06.472Z,19.61
2018-06-20T00:30:35.467Z,19.60
2018-06-20T00:33:04.503Z,19.60
2018-06-20T00:35:33.665Z,19.57
2018-06-20T00:38:02.691Z,19.58
2018-06-20T00:40:31.710Z,19.58
2018-06-20T00:43:00.705Z,19.54
2018-06-20T00:45:29.724Z,19.53
2018-06-20T00:47:58.715Z,19.55
2018-06-20T00:50:27.713Z,19.58
2018-06-20T00:52:56.702Z,19.62
2018-06-20T00:55:37.041Z,19.63
2018-06-20T00:58:06.015Z,19.63
2018-06-20T01:00:35.008Z,19.63
2018-06-20T01:03:04.110Z,19.60
2018-06-20T01:05:33.119Z,19.60
2018-06-20T01:08:02.120Z,19.60
2018-06-20T01:10:31.284Z,19.62
2018-06-20T01:13:00.299Z,19.61
2018-06-20T01:15:29.315Z,19.62
2018-06-20T01:17:58.314Z,19.59
2018-06-20T01:20:27.305Z,19.54
2018-06-20T01:22:56.303Z,19.49
2018-06-20T01:25:25.337Z,19.47
2018-06-20T01:27:54.355Z,19.46
2018-06-20T01:30:23.352Z,19.48
2018-06-20T01:32:52.340Z,19.50
2018-06-20T01:35:21.327Z,19.48
2018-06-20T01:37:50.290Z,19.42
2018-06-20T01:40:19.399Z,19.40
2018-06-20T01:42:48.449Z,19.41
2018-06-20T01:45:17.497Z,19.36
2018-06-20T01:47:46.578Z,19.30
2018-06-20T01:50:15.626Z,19.31
2018-06-20T01:52:44.665Z,19.31
2018-06-20T01:55:13.700Z,19.27
2018-06-20T01:57:42.752Z,19.30
2018-06-20T02:00:11.743Z,19.29
2018-06-20T02:02:40.712Z,19.30
2018-06-20T02:05:09.754Z,19.28
2018-06-20T02:07:38.734Z,19.23
2018-06-20T02:10:07.728Z,19.23
2018-06-20T02:12:36.784Z,19.25
2018-06-20T02:15:05.792Z,19.28
2018-06-20T02:17:34.900Z,19.28
2018-06-20T02:20:03.951Z,19.29
2018-06-20T02:22:32.944Z,19.28
2018-06-20T02:25:01.918Z,19.29
2018-06-20T02:27:30.968Z,19.26
2018-06-20T02:30:00.094Z,19.18
2018-06-20T02:32:29.162Z,19.13
2018-06-20T02:34:58.135Z,19.10
2018-06-20T02:37:27.249Z,19.03
2018-06-20T02:39:56.272Z,18.95
2018-06-20T02:42:25.255Z,18.89
2018-06-20T02:44:54.228Z,18.79
2018-06-20T02:47:28.773Z,18.77
2018-06-20T02:49:57.923Z,18.72
2018-06-20T02:52:26.912Z,18.69
2018-06-20T02:54:56.115Z,18.68
2018-06-20T02:57:25.096Z,18.65
2018-06-20T02:59:54.126Z,18.56
2018-06-20T03:05:14.221Z,18.61
2018-06-20T03:07:43.258Z,18.58
2018-06-20T03:10:12.227Z,18.59
2018-06-20T03:12:41.244Z,18.61
2018-06-20T03:15:10.227Z,18.61
2018-06-20T03:17:39.296Z,18.59
2018-06-20T03:20:08.283Z,18.57
2018-06-20T03:22:37.266Z,18.55
2018-06-20T03:25:06.297Z,18.59
2018-06-20T03:27:35.353Z,18.60
2018-06-20T03:30:04.633Z,18.63
2018-06-20T03:32:33.626Z,18.67
2018-06-20T03:35:02.583Z,18.73
2018-06-20T03:37:31.589Z,18.76
2018-06-20T03:40:00.612Z,18.87
2018-06-20T03:42:29.573Z,18.94
2018-06-20T03:44:58.564Z,18.91
2018-06-20T03:47:27.548Z,18.96
2018-06-20T03:49:56.542Z,19.10
2018-06-20T03:52:25.482Z,19.13
2018-06-20T03:54:54.487Z,19.14
2018-06-20T03:57:23.454Z,19.19
2018-06-20T03:59:52.465Z,19.25
2018-06-20T04:02:21.474Z,19.34
2018-06-20T04:04:50.452Z,19.43
2018-06-20T04:07:19.400Z,19.44
2018-06-20T04:09:48.383Z,19.44
2018-06-20T04:12:17.376Z,19.42
2018-06-20T04:14:46.396Z,19.46
2018-06-20T04:17:15.414Z,19.45
2018-06-20T04:19:44.461Z,19.46
2018-06-20T04:22:13.542Z,19.58
2018-06-20T04:24:42.514Z,19.65
2018-06-20T04:27:11.483Z,19.65
2018-06-20T04:29:40.459Z,19.64
2018-06-20T04:32:09.455Z,19.69
2018-06-20T04:34:38.571Z,19.73
2018-06-20T04:37:07.449Z,19.83
2018-06-20T04:39:36.465Z,19.82
2018-06-20T04:42:05.563Z,19.93
2018-06-20T04:44:34.562Z,19.95
2018-06-20T04:47:03.633Z,20.06
2018-06-20T04:49:32.682Z,19.98
2018-06-20T04:52:01.744Z,19.99
2018-06-20T04:54:30.734Z,20.13
2018-06-20T04:56:59.759Z,20.12
2018-06-20T04:59:28.793Z,20.24
2018-06-20T05:01:57.858Z,20.20
2018-06-20T05:04:26.887Z,20.06
2018-06-20T05:06:55.925Z,20.01
2018-06-20T05:09:25.001Z,20.09
2018-06-20T05:11:54.044Z,20.22
2018-06-20T05:14:23.065Z,20.40
2018-06-20T05:16:52.137Z,20.30
2018-06-20T05:19:21.114Z,20.23
2018-06-20T05:21:50.147Z,20.19
2018-06-20T05:24:19.124Z,20.21
2018-06-20T05:26:48.242Z,20.37
2018-06-20T05:29:17.266Z,20.55
2018-06-20T05:31:46.286Z,20.45
2018-06-20T05:34:15.389Z,20.47
2018-06-20T05:36:44.406Z,20.42
2018-06-20T05:39:13.390Z,20.58
2018-06-20T05:41:42.382Z,20.46
2018-06-20T05:44:11.412Z,20.57
2018-06-20T05:46:40.394Z,20.72
2018-06-20T05:49:09.380Z,21.00
2018-06-20T05:51:38.350Z,21.09
2018-06-20T05:54:07.406Z,21.27
2018-06-20T05:56:36.405Z,21.30
2018-06-20T05:59:05.504Z,21.42
2018-06-20T06:01:34.488Z,21.63
2018-06-20T06:04:03.571Z,21.67
2018-06-20T06:06:34.351Z,21.73
2018-06-20T06:09:03.548Z,21.74
2018-06-20T06:11:32.598Z,21.78
2018-06-20T06:14:01.753Z,21.46
2018-06-20T06:16:30.767Z,21.87
2018-06-20T06:18:59.787Z,22.12
2018-06-20T06:21:28.845Z,22.89
2018-06-20T06:23:57.856Z,24.43
2018-06-20T06:26:26.887Z,26.05
2018-06-20T06:28:55.906Z,26.99
2018-06-20T06:31:24.934Z,26.77
2018-06-20T06:33:53.915Z,26.53
2018-06-20T06:36:22.914Z,27.64
2018-06-20T06:38:51.918Z,27.38
2018-06-20T06:41:20.994Z,27.56
2018-06-20T06:43:50.034Z,27.69
2018-06-20T06:46:19.066Z,28.16
2018-06-20T06:48:48.219Z,28.69
2018-06-20T06:51:17.280Z,28.76
2018-06-20T06:53:46.438Z,28.07
2018-06-20T06:56:15.420Z,28.68
2018-06-20T06:58:44.384Z,28.61
2018-06-20T07:01:13.362Z,27.79
2018-06-20T07:03:42.355Z,26.76
2018-06-20T07:06:11.372Z,26.22
2018-06-20T07:08:40.366Z,25.79
2018-06-20T07:11:09.661Z,25.23
2018-06-20T07:13:38.660Z,24.77
2018-06-20T07:16:07.654Z,24.60
2018-06-20T07:18:36.663Z,24.46
2018-06-20T07:21:05.661Z,24.24
2018-06-20T07:23:34.673Z,24.23
2018-06-20T07:26:03.642Z,24.28
2018-06-20T07:28:32.637Z,24.06
2018-06-20T07:31:01.612Z,24.39
2018-06-20T07:33:31.034Z,24.92
2018-06-20T07:36:00.097Z,25.07
2018-06-20T07:38:29.097Z,24.83
2018-06-20T07:40:58.260Z,24.46
2018-06-20T07:43:27.351Z,24.85
2018-06-20T07:45:56.313Z,24.70
2018-06-20T07:48:25.294Z,24.56
2018-06-20T07:50:54.302Z,24.77
2018-06-20T07:53:23.266Z,25.46
2018-06-20T07:55:52.261Z,25.87
2018-06-20T07:58:26.773Z,26.54
2018-06-20T08:01:01.309Z,27.26
2018-06-20T08:03:35.680Z,29.21
2018-06-20T08:06:09.962Z,29.74
2018-06-20T08:08:44.160Z,29.43
2018-06-20T08:11:18.497Z,28.18
2018-06-20T08:13:52.817Z,28.34
2018-06-20T08:16:27.216Z,27.66
2018-06-20T08:19:01.633Z,27.46
2018-06-20T08:21:30.647Z,27.61
2018-06-20T08:23:59.663Z,28.43
2018-06-20T08:26:28.656Z,28.39
2018-06-20T08:28:57.623Z,28.71
2018-06-20T08:31:26.579Z,28.18
2018-06-20T08:33:55.574Z,27.55
2018-06-20T08:36:24.546Z,27.13
2018-06-20T08:38:53.533Z,27.30
2018-06-20T08:41:22.526Z,27.67
2018-06-20T08:43:51.552Z,28.62
2018-06-20T08:46:20.577Z,28.57
2018-06-20T08:48:49.580Z,29.86
2018-06-20T08:51:18.641Z,30.87
2018-06-20T08:53:47.625Z,30.76
2018-06-20T08:56:16.631Z,30.78
2018-06-20T08:58:45.636Z,30.16
2018-06-20T09:01:14.666Z,30.55
2018-06-20T09:03:44.234Z,30.81
2018-06-20T09:06:18.693Z,30.96
2018-06-20T09:08:53.101Z,32.33
2018-06-20T09:11:27.551Z,32.78
2018-06-20T09:14:01.867Z,32.97
2018-06-20T09:16:36.150Z,32.42
2018-06-20T09:19:10.535Z,32.10
2018-06-20T09:21:39.568Z,32.57
2018-06-20T09:24:08.635Z,32.76
2018-06-20T09:26:38.116Z,31.67
2018-06-20T09:29:07.301Z,32.13
2018-06-20T09:31:36.335Z,32.48
2018-06-20T09:34:05.353Z,33.20
2018-06-20T09:36:34.364Z,33.57
2018-06-20T09:39:03.648Z,34.01
2018-06-20T09:41:32.644Z,33.25
2018-06-20T09:44:01.646Z,33.53
2018-06-20T09:46:30.746Z,34.83
2018-06-20T09:48:59.827Z,34.03
2018-06-20T09:51:28.831Z,32.74
2018-06-20T09:53:57.944Z,32.82
2018-06-20T09:56:26.952Z,31.54
2018-06-20T09:58:58.672Z,31.22
2018-06-20T10:01:33.169Z,30.95
2018-06-20T10:05:06.264Z,32.13
2018-06-20T10:07:40.737Z,32.90
2018-06-20T10:11:14.084Z,32.48
2018-06-20T10:13:44.127Z,32.43
2018-06-20T10:16:13.156Z,32.45
2018-06-20T10:18:42.175Z,32.91
2018-06-20T10:21:11.474Z,33.45
2018-06-20T10:23:40.663Z,34.22
2018-06-20T10:26:09.649Z,34.85
2018-06-20T10:28:38.729Z,34.14
2018-06-20T10:31:07.823Z,32.99
2018-06-20T10:33:36.838Z,31.52
2018-06-20T10:36:05.840Z,31.79
2018-06-20T10:38:34.871Z,32.44
2018-06-20T10:41:03.862Z,33.07
2018-06-20T10:43:32.951Z,33.56
2018-06-20T10:46:07.357Z,33.77
2018-06-20T10:48:36.347Z,34.35
2018-06-20T10:51:05.429Z,34.68
2018-06-20T10:53:35.591Z,34.86
2018-06-20T10:56:06.485Z,35.52
2018-06-20T10:58:41.033Z,35.58
2018-06-20T11:01:15.424Z,36.08
2018-06-20T11:03:49.746Z,33.61
2018-06-20T11:06:24.204Z,33.56
2018-06-20T11:08:58.865Z,33.31
2018-06-20T11:11:33.224Z,33.48
2018-06-20T11:14:02.249Z,33.07
2018-06-20T11:16:31.321Z,33.20
2018-06-20T11:19:00.282Z,34.36
2018-06-20T11:21:29.267Z,34.76
2018-06-20T11:23:58.236Z,35.60
2018-06-20T11:26:27.234Z,35.75
2018-06-20T11:28:56.383Z,36.44
2018-06-20T11:31:25.460Z,35.61
2018-06-20T11:33:54.580Z,35.82
2018-06-20T11:36:23.568Z,34.82
2018-06-20T11:38:52.690Z,34.35
2018-06-20T11:41:21.799Z,33.95
2018-06-20T11:43:51.058Z,34.63
2018-06-20T11:46:25.512Z,34.82
2018-06-20T11:48:54.528Z,34.76
2018-06-20T11:51:23.518Z,33.97
2018-06-20T11:53:52.497Z,34.21
2018-06-20T11:56:21.647Z,34.69
2018-06-20T11:58:56.123Z,34.38
2018-06-20T12:01:30.647Z,33.93
2018-06-20T12:04:04.932Z,33.04
2018-06-20T12:06:39.594Z,33.44
2018-06-20T12:09:14.366Z,34.09
2018-06-20T12:11:48.943Z,34.41
2018-06-20T12:14:23.326Z,34.98
2018-06-20T12:16:51.591Z,35.49
2018-06-20T12:19:26.039Z,36.44
2018-06-20T12:22:00.517Z,36.40
2018-06-20T12:24:35.029Z,36.23
2018-06-20T12:27:09.935Z,36.52
2018-06-20T12:29:44.340Z,37.61
2018-06-20T12:32:19.675Z,36.66
2018-06-20T12:34:54.874Z,37.14
2018-06-20T12:37:29.393Z,36.90
2018-06-20T12:40:04.483Z,35.74
2018-06-20T12:42:38.839Z,35.48
2018-06-20T12:45:11.551Z,35.06
2018-06-20T12:47:45.588Z,34.79
2018-06-20T12:50:24.134Z,35.20
2018-06-20T12:52:53.135Z,35.62
2018-06-20T12:55:22.470Z,36.33
2018-06-20T12:57:51.641Z,36.31
2018-06-20T13:00:20.701Z,35.90
2018-06-20T13:02:49.722Z,36.80
2018-06-20T13:05:18.791Z,38.00
2018-06-20T13:07:47.853Z,38.28
2018-06-20T13:10:16.822Z,38.53
2018-06-20T13:12:45.832Z,38.28
2018-06-20T13:15:14.817Z,39.06
2018-06-20T13:17:43.828Z,39.35
2018-06-20T13:20:12.819Z,38.69
2018-06-20T13:22:41.807Z,38.05
2018-06-20T13:25:10.794Z,37.86
2018-06-20T13:27:45.289Z,37.15
2018-06-20T13:30:14.289Z,38.82
2018-06-20T13:32:48.668Z,38.21
2018-06-20T13:35:22.964Z,37.68
2018-06-20T13:37:57.461Z,37.03
2018-06-20T13:40:31.954Z,38.50
2018-06-20T13:43:06.257Z,37.55
2018-06-20T13:45:40.767Z,36.16
2018-06-20T13:48:14.988Z,36.83
2018-06-20T13:50:44.254Z,37.18
2018-06-20T13:53:13.237Z,36.30
2018-06-20T13:55:42.331Z,35.61
2018-06-20T13:58:13.409Z,36.20
2018-06-20T14:00:42.611Z,36.45
2018-06-20T14:03:11.625Z,36.25
2018-06-20T14:05:40.624Z,35.47
2018-06-20T14:08:09.662Z,35.24
2018-06-20T14:10:38.716Z,35.25
2018-06-20T14:13:07.773Z,35.24
2018-06-20T14:15:36.768Z,34.21
2018-06-20T14:18:05.827Z,34.10
2018-06-20T14:20:40.788Z,34.50
2018-06-20T14:23:09.895Z,35.15
2018-06-20T14:25:38.892Z,35.63
2018-06-20T14:28:07.990Z,35.22
2018-06-20T14:30:42.532Z,36.09
2018-06-20T14:33:16.825Z,35.59
2018-06-20T14:35:51.322Z,35.69
2018-06-20T14:38:25.705Z,35.94
2018-06-20T14:40:59.959Z,36.01
2018-06-20T14:43:34.271Z,35.25
2018-06-20T14:46:08.516Z,35.33
2018-06-20T14:48:37.534Z,34.98
2018-06-20T14:51:06.548Z,35.52
2018-06-20T14:53:35.553Z,35.31
2018-06-20T14:56:04.553Z,34.28
2018-06-20T14:58:33.520Z,34.19
2018-06-20T15:01:02.590Z,34.46
2018-06-20T15:03:31.455Z,34.95
2018-06-20T15:06:00.408Z,34.72
2018-06-20T15:08:29.405Z,34.77
2018-06-20T15:10:58.447Z,34.75
2018-06-20T15:13:27.635Z,34.48
2018-06-20T15:16:01.248Z,34.01
2018-06-20T15:18:30.297Z,33.85
2018-06-20T15:20:59.324Z,33.13
2018-06-20T15:23:28.291Z,32.80
2018-06-20T15:26:02.776Z,32.74
2018-06-20T15:28:37.135Z,32.72
2018-06-20T15:31:11.549Z,33.35
2018-06-20T15:33:46.013Z,33.20
2018-06-20T15:36:20.269Z,33.27
2018-06-20T15:38:49.536Z,32.98
2018-06-20T15:41:18.617Z,33.55
2018-06-20T15:46:27.784Z,32.75
2018-06-20T15:48:56.765Z,32.17
2018-06-20T15:51:25.780Z,31.96
2018-06-20T15:53:54.794Z,31.92
2018-06-20T15:56:30.273Z,31.81
2018-06-20T15:58:59.244Z,32.27
2018-06-20T16:01:28.203Z,32.15
2018-06-20T16:03:57.186Z,31.95
2018-06-20T16:06:26.288Z,31.96
2018-06-20T16:09:00.866Z,32.15
2018-06-20T16:11:29.865Z,32.02
2018-06-20T16:13:58.913Z,32.42
2018-06-20T16:16:27.921Z,32.74
2018-06-20T16:19:02.216Z,32.78
2018-06-20T16:21:36.636Z,32.65
2018-06-20T16:24:11.057Z,32.35
2018-06-20T16:26:45.365Z,32.45
2018-06-20T16:29:19.822Z,32.61
2018-06-20T16:31:48.943Z,32.36
2018-06-20T16:34:18.217Z,32.45
2018-06-20T16:36:47.358Z,32.60
2018-06-20T16:39:16.416Z,32.57
2018-06-20T16:41:45.505Z,32.52
2018-06-20T16:44:14.576Z,32.57
2018-06-20T16:46:43.654Z,32.43
2018-06-20T16:49:12.671Z,31.94
2018-06-20T16:51:41.752Z,31.97
2018-06-20T16:54:10.724Z,31.88
2018-06-20T16:56:39.774Z,31.88
2018-06-20T16:59:08.746Z,32.11
2018-06-20T17:01:43.563Z,31.84
2018-06-20T17:04:12.651Z,31.72
2018-06-20T17:06:41.685Z,31.61
2018-06-20T17:09:11.127Z,31.51
2018-06-20T17:11:40.653Z,31.57
2018-06-20T17:14:15.028Z,31.49
2018-06-20T17:16:49.386Z,31.38
2018-06-20T17:19:23.716Z,31.29
2018-06-20T17:21:58.201Z,31.11
2018-06-20T17:24:32.600Z,31.16
2018-06-20T17:27:01.653Z,31.04
2018-06-20T17:29:30.664Z,30.82
2018-06-20T17:31:59.744Z,30.61
2018-06-20T17:34:28.734Z,30.43
2018-06-20T17:36:57.725Z,30.47
2018-06-20T17:39:26.825Z,30.31
2018-06-20T17:41:56.191Z,30.30
2018-06-20T17:44:25.612Z,30.16
2018-06-20T17:46:54.825Z,30.10
2018-06-20T17:49:23.812Z,30.01
2018-06-20T17:51:52.851Z,29.79
2018-06-20T17:54:21.850Z,29.66
2018-06-20T17:56:51.037Z,29.53
2018-06-20T17:59:20.022Z,29.42
2018-06-20T18:01:48.979Z,29.51
2018-06-20T18:04:23.550Z,29.55
2018-06-20T18:06:58.000Z,29.60
2018-06-20T18:09:32.348Z,29.55
2018-06-20T18:12:06.705Z,29.57
2018-06-20T18:14:41.119Z,29.60
2018-06-20T18:17:10.150Z,29.48
2018-06-20T18:19:39.127Z,29.38
2018-06-20T18:22:08.595Z,29.33
2018-06-20T18:24:37.601Z,29.23
2018-06-20T18:27:06.588Z,29.18
2018-06-20T18:29:35.681Z,29.17
2018-06-20T18:32:04.715Z,29.15
2018-06-20T18:34:33.650Z,29.11
2018-06-20T18:37:02.628Z,29.05
2018-06-20T18:39:37.691Z,28.98
2018-06-20T18:42:06.783Z,28.88
2018-06-20T18:44:35.874Z,28.80
2018-06-20T18:47:05.115Z,28.70
2018-06-20T18:49:34.087Z,28.66
2018-06-20T18:52:03.098Z,28.62
2018-06-20T18:54:32.089Z,28.53
2018-06-20T18:57:01.116Z,28.49
2018-06-20T18:59:35.420Z,28.41
2018-06-20T19:02:09.779Z,28.29
2018-06-20T19:04:44.206Z,28.19
2018-06-20T19:07:18.705Z,28.14
2018-06-20T19:09:47.673Z,28.03
2018-06-20T19:12:16.688Z,28.01
2018-06-20T19:14:45.654Z,27.92
2018-06-20T19:17:14.659Z,27.83
2018-06-20T19:19:43.649Z,27.71
2018-06-20T19:22:12.991Z,27.60
2018-06-20T19:24:41.992Z,27.54
2018-06-20T19:27:11.301Z,27.48
2018-06-20T19:29:40.391Z,27.40
2018-06-20T19:32:09.701Z,27.31
2018-06-20T19:34:38.662Z,27.29
2018-06-20T19:37:07.722Z,27.22
2018-06-20T19:39:42.069Z,27.13
2018-06-20T19:42:11.143Z,27.05
2018-06-20T19:44:40.277Z,26.91
2018-06-20T19:47:09.177Z,26.61
2018-06-20T19:49:38.184Z,26.45
2018-06-20T19:52:07.223Z,26.22
2018-06-20T19:54:36.347Z,25.98
2018-06-20T19:57:05.456Z,25.88
2018-06-20T19:59:34.649Z,25.74
2018-06-20T20:02:03.642Z,25.61
2018-06-20T20:04:32.637Z,25.46
2018-06-20T20:07:01.630Z,25.41
2018-06-20T20:09:30.635Z,25.34
2018-06-20T20:12:00.520Z,25.18
2018-06-20T20:14:29.696Z,25.11
2018-06-20T20:16:58.690Z,25.01
2018-06-20T20:19:28.400Z,24.95
2018-06-20T20:21:57.419Z,24.91
2018-06-20T20:24:26.681Z,24.82
2018-06-20T20:26:55.642Z,24.80
2018-06-20T20:29:24.638Z,24.75
2018-06-20T20:31:53.590Z,24.72
2018-06-20T20:34:22.586Z,24.83
2018-06-20T20:36:51.558Z,25.19
2018-06-20T20:39:20.533Z,25.39
2018-06-20T20:41:49.571Z,25.47
2018-06-20T20:44:18.564Z,25.51
2018-06-20T20:46:47.929Z,25.50
2018-06-20T20:49:16.962Z,25.38
2018-06-20T20:51:46.017Z,25.23
2018-06-20T20:54:15.032Z,25.07
2018-06-20T20:56:44.051Z,24.94
2018-06-20T20:59:13.152Z,24.88
2018-06-20T21:01:42.153Z,24.76
2018-06-20T21:04:17.844Z,24.67
2018-06-20T21:06:46.879Z,24.51
2018-06-20T21:09:16.333Z,24.38
2018-06-20T21:11:45.645Z,24.34
2018-06-20T21:14:14.614Z,24.27
2018-06-20T21:16:43.642Z,24.22
2018-06-20T21:19:12.600Z,24.19
2018-06-20T21:21:41.576Z,24.15
2018-06-20T21:24:10.555Z,24.05
2018-06-20T21:26:39.574Z,23.92
2018-06-20T21:29:08.738Z,23.86
2018-06-20T21:31:37.710Z,23.81
2018-06-20T21:34:07.857Z,23.80
2018-06-20T21:36:36.857Z,23.73
2018-06-20T21:39:08.568Z,23.65
2018-06-20T21:41:37.778Z,23.66
2018-06-20T21:44:06.754Z,23.76
2018-06-20T21:46:35.813Z,23.73
2018-06-20T21:49:04.897Z,23.75
2018-06-20T21:51:36.236Z,23.78
2018-06-20T21:54:05.287Z,23.80
2018-06-20T21:56:34.267Z,23.83
2018-06-20T21:59:03.235Z,23.81
2018-06-20T22:01:32.233Z,23.84
2018-06-20T22:04:01.187Z,23.86
2018-06-20T22:06:30.131Z,23.81
2018-06-20T22:08:59.100Z,23.76
2018-06-20T22:11:32.266Z,23.73
2018-06-20T22:14:01.215Z,23.69
2018-06-20T22:16:30.291Z,23.70
2018-06-20T22:18:59.374Z,23.63
2018-06-20T22:21:28.537Z,23.64
2018-06-20T22:23:57.763Z,23.59
2018-06-20T22:26:26.794Z,23.57
2018-06-20T22:28:56.126Z,23.56
2018-06-20T22:31:25.131Z,23.60
2018-06-20T22:33:54.356Z,23.53
2018-06-20T22:36:23.316Z,23.46
2018-06-20T22:38:52.316Z,23.44
2018-06-20T22:41:21.388Z,23.44
2018-06-20T22:43:50.345Z,23.42
2018-06-20T22:46:19.321Z,23.38
2018-06-20T22:48:48.309Z,23.40
2018-06-20T22:51:17.276Z,23.35
2018-06-20T22:53:46.292Z,23.38
2018-06-20T22:56:15.257Z,23.39
2018-06-20T22:58:44.331Z,23.35
2018-06-20T23:01:13.263Z,23.35
2018-06-20T23:03:42.383Z,23.37
2018-06-20T23:06:11.369Z,23.42
2018-06-20T23:08:40.491Z,23.36
2018-06-20T23:11:09.505Z,23.33
2018-06-20T23:13:38.575Z,23.27
2018-06-20T23:16:07.584Z,23.30
2018-06-20T23:18:36.548Z,23.20
2018-06-20T23:21:05.596Z,23.21
2018-06-20T23:23:34.555Z,23.44
2018-06-20T23:26:03.584Z,23.64
2018-06-20T23:28:32.557Z,23.65
2018-06-20T23:31:01.608Z,23.73
2018-06-20T23:33:30.600Z,23.88
2018-06-20T23:35:59.581Z,23.92
2018-06-20T23:38:28.545Z,23.86
2018-06-20T23:40:57.562Z,23.81
2018-06-20T23:43:26.565Z,23.79
2018-06-20T23:45:55.561Z,23.72
2018-06-20T23:48:24.519Z,23.57
2018-06-20T23:50:53.615Z,23.54
2018-06-20T23:53:22.589Z,23.40
2018-06-20T23:55:51.571Z,23.28
2018-06-20T23:58:20.562Z,23.36
